Seabourn Legend — C6FR6 — position and weather

sailwx.info

Track history (hours):
 
Tides and Currents Weather Stations Pressure Air Temp Water Temp Dewpoint Dewpoint Depression Visibility Wind Speed Wind Dir Waves Ship Positions

Seabourn Legend

Operator: Cunard Seabourn

Last reported at 2019-Sep-20 11:33 UTC. Time now 2019-Sep-21 01:05 UTC.
Position N 55°11' W 131°11'.

Length 135 m; draft 5.6 m.

Type: Passenger vessel. MMSI: 311085000.

Date/timePositionNaut miles runAvg speedWind from/ knotsBaromVisibWave heightAir tempDewpointWater temp
2019-Sep-20 11:33N 55°11' W 131°11'1 9.4
2019-Sep-20 11:30N 55°11' W 131°12'  
2019-Sep-18 05:17N 58°09' W 135°16'3 7.6
2019-Sep-18 04:53N 58°09' W 135°21'3 7.8
2019-Sep-18 04:29N 58°08' W 135°27'0 0.1
2019-Sep-18 04:00N 58°08' W 135°27'0 0.1
2019-Sep-18 03:23N 58°08' W 135°27'0 0.1
2019-Sep-18 02:41N 58°08' W 135°27'0 0.0
2019-Sep-18 02:02N 58°08' W 135°27'0 0.0
2019-Sep-18 01:35N 58°08' W 135°27'0 0.0
2019-Sep-18 00:20N 58°08' W 135°27'0 0.0
2019-Sep-17 23:35N 58°08' W 135°27'0 0.2
2019-Sep-17 23:23N 58°08' W 135°27'0 0.0
2019-Sep-17 22:47N 58°08' W 135°27'1 3.4
2019-Sep-17 22:30N 58°09' W 135°26'5 9.7
2019-Sep-17 22:00N 58°14' W 135°30'611.5
2019-Sep-17 21:30N 58°16' W 135°40'612.3
2019-Sep-17 21:00N 58°19' W 135°50'713.5
2019-Sep-17 20:30N 58°20' W 136°03'912.7
2019-Sep-17 19:46N 58°17' W 136°20'1 0.1
2019-Sep-17 15:32N 58°17' W 136°21'0 0.2
2019-Sep-17 15:10N 58°17' W 136°21'0 2.2
2019-Sep-17 14:57N 58°17' W 136°21'510.6
2019-Sep-17 14:30N 58°19' W 136°13'612.3
2019-Sep-17 14:00N 58°20' W 136°02'612.5
2019-Sep-17 13:30N 58°19' W 135°50'612.7
2019-Sep-17 13:00N 58°16' W 135°39'712.9
2019-Sep-17 12:29N 58°13' W 135°28'  
2019-Sep-14 15:58N 54°22' W 131°14'613.2
2019-Sep-14 15:30N 54°17' W 131°09'713.4
2019-Sep-14 15:01N 54°11' W 131°04'713.2
2019-Sep-14 14:30N 54°04' W 131°02'1214.4
2019-Sep-14 13:41N 53°52' W 131°02'314.3
2019-Sep-14 13:30N 53°50' W 131°02'813.9
2019-Sep-14 12:55N 53°42' W 131°01'1313.6
2019-Sep-14 11:58N 53°29' W 130°59'9813.7
2019-Sep-14 04:49N 52°06' W 129°34'413.0
2019-Sep-14 04:30N 52°02' W 129°30'612.8
2019-Sep-14 04:00N 51°57' W 129°23'612.9
2019-Sep-14 03:31N 51°52' W 129°16'612.7
2019-Sep-14 03:01N 51°48' W 129°10'612.3
2019-Sep-14 02:31N 51°43' W 129°04'611.6
2019-Sep-14 02:00N 51°38' W 128°58'612.0
2019-Sep-14 01:30N 51°34' W 128°52'612.6
2019-Sep-14 01:01N 51°29' W 128°45'612.2
2019-Sep-14 00:31N 51°24' W 128°39'611.9
2019-Sep-14 00:00N 51°20' W 128°32'612.3
2019-Sep-13 23:30N 51°16' W 128°25'612.5
2019-Sep-13 23:00N 51°12' W 128°17'612.7
2019-Sep-13 22:30N 51°08' W 128°09'612.6
2019-Sep-13 22:00N 51°05' W 128°00'612.5
2019-Sep-13 21:30N 51°01' W 127°52'611.8
2019-Sep-13 21:00N 50°57' W 127°45'510.6
2019-Sep-13 20:30N 50°54' W 127°38'8613.0
2019-Sep-13 13:51N 50°21' W 125°32'513.9
2019-Sep-13 13:30N 50°20' W 125°25'714.0
2019-Sep-13 13:00N 50°13' W 125°22'611.7
2019-Sep-13 12:31N 50°07' W 125°20'4 8.5
2019-Sep-13 12:00N 50°04' W 125°16'4 8.9
2019-Sep-13 11:30N 50°00' W 125°12'5 9.1
2019-Sep-13 11:00N 49°57' W 125°08'5 9.0
2019-Sep-13 10:30N 49°54' W 125°03'4 8.2
2019-Sep-13 10:00N 49°51' W 124°59'5 9.4
2019-Sep-13 09:30N 49°47' W 124°53'5 9.1
2019-Sep-13 09:00N 49°44' W 124°49'4 8.7
2019-Sep-13 08:30N 49°41' W 124°44'4 8.4
2019-Sep-13 08:00N 49°38' W 124°40'4 8.3
2019-Sep-13 07:30N 49°35' W 124°36'4 8.3
2019-Sep-13 07:00N 49°31' W 124°32'4 8.3
2019-Sep-13 06:30N 49°28' W 124°27'4 8.4
2019-Sep-13 06:00N 49°26' W 124°22'4 8.5
2019-Sep-13 05:30N 49°25' W 124°16'4 8.6
2019-Sep-13 04:59N 49°24' W 124°09'5 8.3
2019-Sep-13 04:20N 49°23' W 124°01'3 8.1
2019-Sep-13 03:56N 49°22' W 123°56'18 8.4
2019-Sep-13 01:49N 49°19' W 123°29'3 8.9
2019-Sep-13 01:29N 49°19' W 123°25'4 9.4
2019-Sep-13 01:00N 49°19' W 123°18'5 9.4
2019-Sep-13 00:30N 49°19' W 123°11'3 6.6
2019-Sep-13 00:00N 49°17' W 123°06'0 0.0
2019-Sep-12 23:30N 49°17' W 123°06'0 0.0
2019-Sep-12 23:00N 49°17' W 123°06'0 0.0
2019-Sep-12 22:30N 49°17' W 123°06'0 0.0
2019-Sep-12 22:00N 49°17' W 123°06'0 0.0
2019-Sep-12 21:30N 49°17' W 123°06'0 0.0
2019-Sep-12 21:00N 49°17' W 123°06'0 0.0
2019-Sep-12 20:30N 49°17' W 123°06'0 0.0
2019-Sep-12 20:00N 49°17' W 123°06'0 0.0
2019-Sep-12 19:30N 49°17' W 123°06'0 0.0
2019-Sep-12 19:00N 49°17' W 123°06'0 0.0
2019-Sep-12 18:30N 49°17' W 123°06'0 0.0
2019-Sep-12 18:00N 49°17' W 123°06'0 0.0
2019-Sep-12 17:30N 49°17' W 123°06'0 0.0
2019-Sep-12 17:00N 49°17' W 123°06'0 0.0
2019-Sep-12 16:30N 49°17' W 123°06'0 0.0
2019-Sep-12 16:00N 49°17' W 123°06'0 0.0
2019-Sep-12 15:30N 49°17' W 123°06'0 0.0
2019-Sep-12 15:00N 49°17' W 123°06'0 0.0
2019-Sep-12 14:30N 49°17' W 123°06'0 0.5
2019-Sep-12 14:01N 49°18' W 123°07'3 5.5
2019-Sep-12 13:31N 49°19' W 123°10'4 7.4
2019-Sep-12 13:01N 49°19' W 123°16'4 7.3
2019-Sep-12 12:30N 49°18' W 123°21'4 7.5
2019-Sep-12 12:01N 49°18' W 123°27'4 7.6
2019-Sep-12 11:31N 49°18' W 123°33'4 7.2
2019-Sep-12 11:01N 49°19' W 123°38'4 8.1
2019-Sep-12 10:30N 49°20' W 123°44'4 8.4
2019-Sep-12 10:01N 49°21' W 123°51'4 7.9
2019-Sep-12 09:31N 49°22' W 123°56'3 6.7
2019-Sep-12 09:00N 49°23' W 124°02'3 6.7
2019-Sep-12 08:31N 49°23' W 124°06'4 8.1
2019-Sep-12 08:00N 49°24' W 124°13'4 7.3
2019-Sep-12 07:30N 49°25' W 124°18'4 7.8
2019-Sep-12 07:00N 49°27' W 124°24'4 7.9
2019-Sep-12 06:28N 49°29' W 124°29'4 7.9
2019-Sep-12 06:01N 49°32' W 124°33'4 7.8
2019-Sep-12 05:31N 49°35' W 124°37'4 8.2
2019-Sep-12 05:01N 49°38' W 124°41'4 8.0
2019-Sep-12 04:31N 49°41' W 124°45'4 7.6
2019-Sep-12 04:00N 49°44' W 124°49'4 7.0
2019-Sep-12 03:30N 49°47' W 124°52'3 7.0
2019-Sep-12 03:00N 49°49' W 124°56'4 7.1
2019-Sep-12 02:31N 49°51' W 124°60'4 8.2
2019-Sep-12 02:01N 49°54' W 125°05'4 8.9
2019-Sep-12 01:31N 49°57' W 125°10'4 7.9
2019-Sep-12 01:00N 50°01' W 125°13'4 7.7
2019-Sep-12 00:30N 50°04' W 125°15'4 8.8
2019-Sep-12 00:01N 50°07' W 125°20'5 9.5
2019-Sep-11 23:30N 50°12' W 125°22'4 8.6
2019-Sep-11 23:00N 50°16' W 125°24'8811.5
2019-Sep-11 15:22N 50°51' W 127°30'513.0
2019-Sep-11 15:00N 50°53' W 127°37'612.1
2019-Sep-11 14:30N 50°57' W 127°44'612.1
2019-Sep-11 14:00N 51°03' W 127°48'612.9
2019-Sep-11 13:30N 51°09' W 127°51'612.7
2019-Sep-11 13:00N 51°15' W 127°53'713.4
2019-Sep-11 12:30N 51°22' W 127°52'714.0
2019-Sep-11 12:01N 51°29' W 127°51'714.0
2019-Sep-11 11:31N 51°36' W 127°53'713.9
2019-Sep-11 11:00N 51°43' W 127°56'713.5
2019-Sep-11 10:30N 51°49' W 127°56'713.8
2019-Sep-11 10:00N 51°56' W 127°56'713.9
2019-Sep-11 09:30N 52°03' W 127°56'611.4
2019-Sep-11 09:00N 52°05' W 128°05'611.7
2019-Sep-11 08:31N 52°10' W 128°08'5 9.0
2019-Sep-11 08:00N 52°14' W 128°12'713.0
2019-Sep-11 07:30N 52°15' W 128°23'612.7
2019-Sep-11 07:00N 52°19' W 128°30'612.1
2019-Sep-11 06:30N 52°25' W 128°29'612.6
2019-Sep-11 06:00N 52°31' W 128°27'713.4
2019-Sep-11 05:30N 52°38' W 128°30'611.1
2019-Sep-11 04:59N 52°43' W 128°34'7912.3
2019-Sep-10 22:33N 53°46' W 129°54'113.9
2019-Sep-10 22:29N 53°47' W 129°55'714.1
2019-Sep-10 22:00N 53°52' W 130°03'713.0
2019-Sep-10 21:31N 53°56' W 130°12'713.5
2019-Sep-10 21:00N 54°02' W 130°15'612.4
2019-Sep-10 20:30N 54°06' W 130°22'713.6
2019-Sep-10 20:01N 54°13' W 130°21'510.7
2019-Sep-10 19:30N 54°18' W 130°21'1 2.2
2019-Sep-10 18:56N 54°19' W 130°19'0 0.0
2019-Sep-10 18:26N 54°19' W 130°19'0 0.0
2019-Sep-10 17:56N 54°19' W 130°19'0 0.0
2019-Sep-10 17:26N 54°19' W 130°19'0 0.0
2019-Sep-10 16:56N 54°19' W 130°19'0 0.0
2019-Sep-10 16:26N 54°19' W 130°19'0 0.0
2019-Sep-10 15:56N 54°19' W 130°19'0 0.0
2019-Sep-10 15:26N 54°19' W 130°19'0 0.0
2019-Sep-10 14:56N 54°19' W 130°19'0 0.0
2019-Sep-10 14:26N 54°19' W 130°19'0 0.0
2019-Sep-10 13:56N 54°19' W 130°19'0 0.0
2019-Sep-10 13:25N 54°19' W 130°19'0 0.0
2019-Sep-10 12:56N 54°19' W 130°19'0 0.3
2019-Sep-10 12:30N 54°19' W 130°20'2 4.0
2019-Sep-10 12:00N 54°18' W 130°22'  
Track history (hours):
 
Tides and Currents Weather Stations Pressure Air Temp Water Temp Dewpoint Dewpoint Depression Visibility Wind Speed Wind Dir Waves Ship Positions

Seabourn Legend

Operator: Cunard Seabourn

Last reported at 2019-Sep-20 11:33 UTC. Time now 2019-Sep-21 01:05 UTC.
Position N 55°11' W 131°11'.

Length 135 m; draft 5.6 m.

Type: Passenger vessel. MMSI: 311085000.

Date/timePositionNaut miles runAvg speedWind from/ knotsBaromVisibWave heightAir tempDewpointWater temp
2019-Sep-20 11:33N 55°11' W 131°11'1 9.4
2019-Sep-20 11:30N 55°11' W 131°12'  
2019-Sep-18 05:17N 58°09' W 135°16'3 7.6
2019-Sep-18 04:53N 58°09' W 135°21'3 7.8
2019-Sep-18 04:29N 58°08' W 135°27'0 0.1
2019-Sep-18 04:00N 58°08' W 135°27'0 0.1
2019-Sep-18 03:23N 58°08' W 135°27'0 0.1
2019-Sep-18 02:41N 58°08' W 135°27'0 0.0
2019-Sep-18 02:02N 58°08' W 135°27'0 0.0
2019-Sep-18 01:35N 58°08' W 135°27'0 0.0
2019-Sep-18 00:20N 58°08' W 135°27'0 0.0
2019-Sep-17 23:35N 58°08' W 135°27'0 0.2
2019-Sep-17 23:23N 58°08' W 135°27'0 0.0
2019-Sep-17 22:47N 58°08' W 135°27'1 3.4
2019-Sep-17 22:30N 58°09' W 135°26'5 9.7
2019-Sep-17 22:00N 58°14' W 135°30'611.5
2019-Sep-17 21:30N 58°16' W 135°40'612.3
2019-Sep-17 21:00N 58°19' W 135°50'713.5
2019-Sep-17 20:30N 58°20' W 136°03'912.7
2019-Sep-17 19:46N 58°17' W 136°20'1 0.1
2019-Sep-17 15:32N 58°17' W 136°21'0 0.2
2019-Sep-17 15:10N 58°17' W 136°21'0 2.2
2019-Sep-17 14:57N 58°17' W 136°21'510.6
2019-Sep-17 14:30N 58°19' W 136°13'612.3
2019-Sep-17 14:00N 58°20' W 136°02'612.5
2019-Sep-17 13:30N 58°19' W 135°50'612.7
2019-Sep-17 13:00N 58°16' W 135°39'712.9
2019-Sep-17 12:29N 58°13' W 135°28'  
2019-Sep-14 15:58N 54°22' W 131°14'613.2
2019-Sep-14 15:30N 54°17' W 131°09'713.4
2019-Sep-14 15:01N 54°11' W 131°04'713.2
2019-Sep-14 14:30N 54°04' W 131°02'1214.4
2019-Sep-14 13:41N 53°52' W 131°02'314.3
2019-Sep-14 13:30N 53°50' W 131°02'813.9
2019-Sep-14 12:55N 53°42' W 131°01'1313.6
2019-Sep-14 11:58N 53°29' W 130°59'9813.7
2019-Sep-14 04:49N 52°06' W 129°34'413.0
2019-Sep-14 04:30N 52°02' W 129°30'612.8
2019-Sep-14 04:00N 51°57' W 129°23'612.9
2019-Sep-14 03:31N 51°52' W 129°16'612.7
2019-Sep-14 03:01N 51°48' W 129°10'612.3
2019-Sep-14 02:31N 51°43' W 129°04'611.6
2019-Sep-14 02:00N 51°38' W 128°58'612.0
2019-Sep-14 01:30N 51°34' W 128°52'612.6
2019-Sep-14 01:01N 51°29' W 128°45'612.2
2019-Sep-14 00:31N 51°24' W 128°39'611.9
2019-Sep-14 00:00N 51°20' W 128°32'612.3
2019-Sep-13 23:30N 51°16' W 128°25'612.5
2019-Sep-13 23:00N 51°12' W 128°17'612.7
2019-Sep-13 22:30N 51°08' W 128°09'612.6
2019-Sep-13 22:00N 51°05' W 128°00'612.5
2019-Sep-13 21:30N 51°01' W 127°52'611.8
2019-Sep-13 21:00N 50°57' W 127°45'510.6
2019-Sep-13 20:30N 50°54' W 127°38'8613.0
2019-Sep-13 13:51N 50°21' W 125°32'513.9
2019-Sep-13 13:30N 50°20' W 125°25'714.0
2019-Sep-13 13:00N 50°13' W 125°22'611.7
2019-Sep-13 12:31N 50°07' W 125°20'4 8.5
2019-Sep-13 12:00N 50°04' W 125°16'4 8.9
2019-Sep-13 11:30N 50°00' W 125°12'5 9.1
2019-Sep-13 11:00N 49°57' W 125°08'5 9.0
2019-Sep-13 10:30N 49°54' W 125°03'4 8.2
2019-Sep-13 10:00N 49°51' W 124°59'5 9.4
2019-Sep-13 09:30N 49°47' W 124°53'5 9.1
2019-Sep-13 09:00N 49°44' W 124°49'4 8.7
2019-Sep-13 08:30N 49°41' W 124°44'4 8.4
2019-Sep-13 08:00N 49°38' W 124°40'4 8.3
2019-Sep-13 07:30N 49°35' W 124°36'4 8.3
2019-Sep-13 07:00N 49°31' W 124°32'4 8.3
2019-Sep-13 06:30N 49°28' W 124°27'4 8.4
2019-Sep-13 06:00N 49°26' W 124°22'4 8.5
2019-Sep-13 05:30N 49°25' W 124°16'4 8.6
2019-Sep-13 04:59N 49°24' W 124°09'5 8.3
2019-Sep-13 04:20N 49°23' W 124°01'3 8.1
2019-Sep-13 03:56N 49°22' W 123°56'18 8.4
2019-Sep-13 01:49N 49°19' W 123°29'3 8.9
2019-Sep-13 01:29N 49°19' W 123°25'4 9.4
2019-Sep-13 01:00N 49°19' W 123°18'5 9.4
2019-Sep-13 00:30N 49°19' W 123°11'3 6.6
2019-Sep-13 00:00N 49°17' W 123°06'0 0.0
2019-Sep-12 23:30N 49°17' W 123°06'0 0.0
2019-Sep-12 23:00N 49°17' W 123°06'0 0.0
2019-Sep-12 22:30N 49°17' W 123°06'0 0.0
2019-Sep-12 22:00N 49°17' W 123°06'0 0.0
2019-Sep-12 21:30N 49°17' W 123°06'0 0.0
2019-Sep-12 21:00N 49°17' W 123°06'0 0.0
2019-Sep-12 20:30N 49°17' W 123°06'0 0.0
2019-Sep-12 20:00N 49°17' W 123°06'0 0.0
2019-Sep-12 19:30N 49°17' W 123°06'0 0.0
2019-Sep-12 19:00N 49°17' W 123°06'0 0.0
2019-Sep-12 18:30N 49°17' W 123°06'0 0.0
2019-Sep-12 18:00N 49°17' W 123°06'0 0.0
2019-Sep-12 17:30N 49°17' W 123°06'0 0.0
2019-Sep-12 17:00N 49°17' W 123°06'0 0.0
2019-Sep-12 16:30N 49°17' W 123°06'0 0.0
2019-Sep-12 16:00N 49°17' W 123°06'0 0.0
2019-Sep-12 15:30N 49°17' W 123°06'0 0.0
2019-Sep-12 15:00N 49°17' W 123°06'0 0.0
2019-Sep-12 14:30N 49°17' W 123°06'0 0.5
2019-Sep-12 14:01N 49°18' W 123°07'3 5.5
2019-Sep-12 13:31N 49°19' W 123°10'4 7.4
2019-Sep-12 13:01N 49°19' W 123°16'4 7.3
2019-Sep-12 12:30N 49°18' W 123°21'4 7.5
2019-Sep-12 12:01N 49°18' W 123°27'4 7.6
2019-Sep-12 11:31N 49°18' W 123°33'4 7.2
2019-Sep-12 11:01N 49°19' W 123°38'4 8.1
2019-Sep-12 10:30N 49°20' W 123°44'4 8.4
2019-Sep-12 10:01N 49°21' W 123°51'4 7.9
2019-Sep-12 09:31N 49°22' W 123°56'3 6.7
2019-Sep-12 09:00N 49°23' W 124°02'3 6.7
2019-Sep-12 08:31N 49°23' W 124°06'4 8.1
2019-Sep-12 08:00N 49°24' W 124°13'4 7.3
2019-Sep-12 07:30N 49°25' W 124°18'4 7.8
2019-Sep-12 07:00N 49°27' W 124°24'4 7.9
2019-Sep-12 06:28N 49°29' W 124°29'4 7.9
2019-Sep-12 06:01N 49°32' W 124°33'4 7.8
2019-Sep-12 05:31N 49°35' W 124°37'4 8.2
2019-Sep-12 05:01N 49°38' W 124°41'4 8.0
2019-Sep-12 04:31N 49°41' W 124°45'4 7.6
2019-Sep-12 04:00N 49°44' W 124°49'4 7.0
2019-Sep-12 03:30N 49°47' W 124°52'3 7.0
2019-Sep-12 03:00N 49°49' W 124°56'4 7.1
2019-Sep-12 02:31N 49°51' W 124°60'4 8.2
2019-Sep-12 02:01N 49°54' W 125°05'4 8.9
2019-Sep-12 01:31N 49°57' W 125°10'4 7.9
2019-Sep-12 01:00N 50°01' W 125°13'4 7.7
2019-Sep-12 00:30N 50°04' W 125°15'4 8.8
2019-Sep-12 00:01N 50°07' W 125°20'5 9.5
2019-Sep-11 23:30N 50°12' W 125°22'4 8.6
2019-Sep-11 23:00N 50°16' W 125°24'8811.5
2019-Sep-11 15:22N 50°51' W 127°30'513.0
2019-Sep-11 15:00N 50°53' W 127°37'612.1
2019-Sep-11 14:30N 50°57' W 127°44'612.1
2019-Sep-11 14:00N 51°03' W 127°48'612.9
2019-Sep-11 13:30N 51°09' W 127°51'612.7
2019-Sep-11 13:00N 51°15' W 127°53'713.4
2019-Sep-11 12:30N 51°22' W 127°52'714.0
2019-Sep-11 12:01N 51°29' W 127°51'714.0
2019-Sep-11 11:31N 51°36' W 127°53'713.9
2019-Sep-11 11:00N 51°43' W 127°56'713.5
2019-Sep-11 10:30N 51°49' W 127°56'713.8
2019-Sep-11 10:00N 51°56' W 127°56'713.9
2019-Sep-11 09:30N 52°03' W 127°56'611.4
2019-Sep-11 09:00N 52°05' W 128°05'611.7
2019-Sep-11 08:31N 52°10' W 128°08'5 9.0
2019-Sep-11 08:00N 52°14' W 128°12'713.0
2019-Sep-11 07:30N 52°15' W 128°23'612.7
2019-Sep-11 07:00N 52°19' W 128°30'612.1
2019-Sep-11 06:30N 52°25' W 128°29'612.6
2019-Sep-11 06:00N 52°31' W 128°27'713.4
2019-Sep-11 05:30N 52°38' W 128°30'611.1
2019-Sep-11 04:59N 52°43' W 128°34'7912.3
2019-Sep-10 22:33N 53°46' W 129°54'113.9
2019-Sep-10 22:29N 53°47' W 129°55'714.1
2019-Sep-10 22:00N 53°52' W 130°03'713.0
2019-Sep-10 21:31N 53°56' W 130°12'713.5
2019-Sep-10 21:00N 54°02' W 130°15'612.4
2019-Sep-10 20:30N 54°06' W 130°22'713.6
2019-Sep-10 20:01N 54°13' W 130°21'510.7
2019-Sep-10 19:30N 54°18' W 130°21'1 2.2
2019-Sep-10 18:56N 54°19' W 130°19'0 0.0
2019-Sep-10 18:26N 54°19' W 130°19'0 0.0
2019-Sep-10 17:56N 54°19' W 130°19'0 0.0
2019-Sep-10 17:26N 54°19' W 130°19'0 0.0
2019-Sep-10 16:56N 54°19' W 130°19'0 0.0
2019-Sep-10 16:26N 54°19' W 130°19'0 0.0
2019-Sep-10 15:56N 54°19' W 130°19'0 0.0
2019-Sep-10 15:26N 54°19' W 130°19'0 0.0
2019-Sep-10 14:56N 54°19' W 130°19'0 0.0
2019-Sep-10 14:26N 54°19' W 130°19'0 0.0
2019-Sep-10 13:56N 54°19' W 130°19'0 0.0
2019-Sep-10 13:25N 54°19' W 130°19'0 0.0
2019-Sep-10 12:56N 54°19' W 130°19'0 0.3
2019-Sep-10 12:30N 54°19' W 130°20'2 4.0
2019-Sep-10 12:00N 54°18' W 130°22'  

Dump ship's entire track history